الصفحة الرئيسية
METAR-TAF:

METAR-TAF

مطار :

Chinandega, نيكاراغوا

دائرة عرض: 12-38N, خط طول: 087-08W, ارتفاع: 53 متر

مراقبة الطقس الحالي

تاريخ ووقت الإصدار 24 دقيقة قبل الساعة 18:00UTC
ريح 6 عقدة من الشرق
درجة الحرارة 35°درجة مئوية
الرطوبة 23%
ضغط 1011 hPa
الرؤية 10 كم أو أكثر
الغيوم لا تقل 1500 م ولا وجود لمزنة ركامية السحاب الأسود

METAR: MNCH 041800Z 09006KT CAVOK 35/11 Q1011

زمن: 12:24 (18:24 UTC)


TAF: مفقودة

أرصاد الطقس والتوقعات من أكثر من 4000 مطار (تقارير الطقس للمطار METAR والتنبؤ بالطقس بالمطارTAF).

المحطات المتاحة هي النقط الصفراء والحمراء على الخريطة.

حرك المؤشر فوق النقطة لمعرفة اسم المحطة.

ثم انقر لمعرفة أرصاد وتوقعات الطقس.

لتغيير الخارطة: اضغط على الأزرار الخضراء مع رمز الصليب الأسود للتكبير. على الزر الأخضر مع شرطة للتصغير، أو على الأسهم الخضراء للخرائط المجاورة.


METAR-TAF: